.
WxDataArchive / Data Records for 2013-11-26
2013-11-25 November 2013 2013-11-27

Data Records for Tuesday, 26 November 2013

Time	Temp	Chill	HIndex	Humid	Dewpt	 Wind 	HiWind	WindDir	Rain 	Barom 
-----	----	-----	------	-----	-----	------	------	-------	-----	----- 
00:00	29.5	29.5	29.5	79	23.8	1	4	248	0.00	30.149 
00:05	29.4	29.4	29.4	79	23.7	1	4	248	0.00	30.149 
00:10	29.4	29.4	29.4	80	24.0	0	2	248	0.00	30.149 
00:15	29.4	29.4	29.4	80	24.0	0	2	248	0.00	30.150 
00:20	29.4	29.4	29.4	80	24.0	1	5	248	0.00	30.150 
00:25	29.4	29.4	29.4	80	24.0	1	4	248	0.00	30.150 
00:30	29.4	29.4	29.4	80	24.0	1	5	248	0.00	30.150 
00:35	29.4	29.4	29.4	80	24.0	0	2	248	0.00	30.150 
00:40	29.4	29.4	29.4	80	24.0	0	3	248	0.00	30.150 
00:45	29.4	29.4	29.4	80	24.0	0	2	248	0.00	30.155 
00:50	29.3	29.3	29.3	80	23.9	0	3	248	0.00	30.155 
00:55	29.3	29.3	29.3	81	24.2	1	6	248	0.00	30.155 
01:00	29.3	29.3	29.3	81	24.2	1	4	248	0.00	30.155 
01:05	29.3	29.3	29.3	81	24.2	1	3	248	0.00	30.155 
01:10	29.3	29.3	29.3	81	24.2	1	3	248	0.00	30.155 
01:15	29.3	29.3	29.3	81	24.2	1	3	248	0.00	30.155 
01:20	29.3	29.3	29.3	81	24.2	1	4	248	0.00	30.155 
01:25	29.3	29.3	29.3	81	24.2	0	4	248	0.00	30.155 
01:30	29.3	29.3	29.3	81	24.2	1	4	248	0.00	30.148 
01:35	29.3	29.3	29.3	81	24.2	0	3	248	0.00	30.148 
01:40	29.1	29.1	29.1	81	24.0	0	2	248	0.00	30.148 
01:45	29.1	29.1	29.1	81	24.0	0	2	248	0.00	30.152 
01:50	29.1	29.1	29.1	81	24.0	1	3	248	0.00	30.152 
01:55	29.1	29.1	29.1	81	24.0	1	3	248	0.00	30.152 
02:00	29.1	29.1	29.1	82	24.3	0	2	248	0.00	30.149 
02:05	29.1	29.1	29.1	81	24.0	1	4	248	0.00	30.149 
02:10	29.1	29.1	29.1	81	24.0	0	3	248	0.00	30.149 
02:15	29.0	29.0	29.0	81	23.9	1	5	248	0.00	30.147 
02:20	29.1	29.1	29.1	82	24.3	0	3	248	0.00	30.147 
02:25	29.0	29.0	29.0	82	24.2	0	2	248	0.00	30.147 
02:30	29.0	29.0	29.0	82	24.2	0	2	248	0.00	30.154 
02:35	29.1	29.1	29.1	81	24.0	1	3	248	0.00	30.154 
02:40	29.1	29.1	29.1	81	24.0	1	3	248	0.00	30.154 
02:45	29.1	29.1	29.1	81	24.0	0	1	248	0.00	30.141 
02:50	29.1	29.1	29.1	81	24.0	0	3	248	0.00	30.141 
02:55	29.1	29.1	29.1	80	23.7	0	4	270	0.00	30.141 
03:00	29.3	29.3	29.3	80	23.9	1	4	248	0.00	30.136 
03:05	29.3	29.3	29.3	80	23.9	0	2	248	0.00	30.136 
03:10	29.3	29.3	29.3	79	23.6	0	2	248	0.00	30.136 
03:15	29.3	29.3	29.3	79	23.6	0	3	248	0.00	30.134 
03:20	29.4	29.4	29.4	79	23.7	1	4	248	0.00	30.134 
03:25	29.4	29.4	29.4	79	23.7	0	2	248	0.00	30.134 
03:30	29.4	29.4	29.4	79	23.7	0	3	248	0.00	30.134 
03:35	29.4	29.4	29.4	79	23.7	1	4	248	0.00	30.134 
03:40	29.4	29.4	29.4	79	23.7	1	3	248	0.00	30.134 
03:45	29.4	29.4	29.4	79	23.7	0	2	248	0.00	30.132 
03:50	29.4	29.4	29.4	79	23.7	0	2	248	0.00	30.132 
03:55	29.4	29.4	29.4	79	23.7	0	2	248	0.00	30.132 
04:00	29.4	29.4	29.4	79	23.7	0	1	248	0.00	30.132 
04:05	29.4	29.4	29.4	79	23.7	0	2	248	0.00	30.132 
04:10	29.4	29.4	29.4	79	23.7	0	1	248	0.00	30.132 
04:15	29.5	29.5	29.5	79	23.8	0	4	248	0.00	30.128 
04:20	29.5	29.5	29.5	79	23.8	0	2	248	0.00	30.128 
04:25	29.5	29.5	29.5	79	23.8	0	2	248	0.00	30.128 
04:30	29.5	29.5	29.5	79	23.8	0	2	248	0.00	30.126 
04:35	29.5	29.5	29.5	79	23.8	0	2	248	0.00	30.126 
04:40	29.5	29.5	29.5	79	23.8	0	2	248	0.00	30.126 
04:45	29.5	29.5	29.5	79	23.8	1	4	248	0.00	30.123 
04:50	29.5	29.5	29.5	78	23.5	0	1	248	0.00	30.123 
04:55	29.5	29.5	29.5	79	23.8	0	1	248	0.00	30.123 
05:00	29.5	29.5	29.5	78	23.5	0	2	248	0.00	30.116 
05:05	29.5	29.5	29.5	78	23.5	0	2	248	0.00	30.116 
05:10	29.5	29.5	29.5	78	23.5	0	1	248	0.00	30.116 
05:15	29.5	29.5	29.5	78	23.5	0	2	248	0.00	30.121 
05:20	29.7	29.7	29.7	78	23.7	0	1	248	0.00	30.121 
05:25	29.7	29.7	29.7	78	23.7	0	0	---	0.00	30.121 
05:30	29.7	29.7	29.7	78	23.7	0	1	248	0.00	30.117 
05:35	29.7	29.7	29.7	78	23.7	0	1	248	0.00	30.117 
05:40	29.7	29.7	29.7	78	23.7	0	0	---	0.00	30.117 
05:45	29.7	29.7	29.7	78	23.7	0	1	248	0.00	30.112 
05:50	29.7	29.7	29.7	78	23.7	0	0	---	0.00	30.112 
05:55	29.7	29.7	29.7	78	23.7	0	1	248	0.00	30.112 
06:00	29.7	29.7	29.7	78	23.7	0	1	248	0.00	30.116 
06:05	29.7	29.7	29.7	78	23.7	0	2	248	0.00	30.116 
06:10	29.7	29.7	29.7	78	23.7	0	1	248	0.00	30.116 
06:15	29.7	29.7	29.7	77	23.4	0	1	248	0.00	30.114 
06:20	29.7	29.7	29.7	77	23.4	0	0	---	0.00	30.114 
06:25	29.7	29.7	29.7	77	23.4	0	1	248	0.00	30.114 
06:30	29.7	29.7	29.7	77	23.4	0	1	248	0.00	30.105 
06:35	29.7	29.7	29.7	77	23.4	0	1	248	0.00	30.105 
06:40	29.7	29.7	29.7	77	23.4	0	2	248	0.00	30.105 
06:45	29.7	29.7	29.7	77	23.4	0	0	---	0.00	30.104 
06:50	29.7	29.7	29.7	76	23.1	0	1	248	0.00	30.104 
06:55	29.7	29.7	29.7	76	23.1	0	2	248	0.00	30.104 
07:00	29.8	29.8	29.8	76	23.2	0	2	248	0.00	30.104 
07:05	29.8	29.8	29.8	75	22.9	0	1	248	0.00	30.104 
07:10	29.8	29.8	29.8	75	22.9	0	1	248	0.00	30.104 
07:15	29.8	29.8	29.8	75	22.9	0	0	---	0.00	30.095 
07:20	29.8	29.8	29.8	75	22.9	0	2	248	0.00	30.095 
07:25	29.8	29.8	29.8	74	22.5	0	1	248	0.00	30.095 
07:30	29.8	29.8	29.8	74	22.5	0	1	248	0.00	30.102 
07:35	29.8	29.8	29.8	74	22.5	0	0	---	0.00	30.102 
07:40	29.8	29.8	29.8	74	22.5	0	1	248	0.00	30.102 
07:45	29.8	29.8	29.8	74	22.5	0	0	---	0.00	30.092 
07:50	29.8	29.8	29.8	74	22.5	0	0	---	0.00	30.092 
07:55	29.8	29.8	29.8	74	22.5	0	0	---	0.00	30.092 
08:00	29.8	29.8	29.8	74	22.5	0	0	---	0.00	30.097 
08:05	29.8	29.8	29.8	74	22.5	0	0	---	0.00	30.097 
08:10	29.8	29.8	29.8	74	22.5	0	0	---	0.00	30.097 
08:15	29.8	29.8	29.8	74	22.5	0	0	---	0.00	30.089 
08:20	29.8	29.8	29.8	74	22.5	0	0	---	0.00	30.089 
08:25	30.0	30.0	30.0	74	22.7	0	0	---	0.00	30.089 
08:30	30.0	30.0	30.0	74	22.7	0	1	248	0.00	30.112 
08:35	30.0	30.0	30.0	74	22.7	0	0	---	0.00	30.112 
08:40	30.1	30.1	30.1	74	22.8	0	1	248	0.00	30.112 
08:45	30.1	30.1	30.1	73	22.5	0	1	248	0.00	30.109 
08:50	30.1	30.1	30.1	73	22.5	0	0	---	0.00	30.109 
08:55	30.3	30.3	30.3	73	22.7	0	0	---	0.00	30.109 
09:00	30.3	30.3	30.3	73	22.7	0	0	---	0.00	30.105 
09:05	30.3	30.3	30.3	73	22.7	0	1	248	0.00	30.105 
09:10	30.3	30.3	30.3	73	22.7	0	1	248	0.00	30.105 
09:15	30.3	30.3	30.3	73	22.7	0	1	248	0.00	30.096 
09:20	30.4	30.4	30.4	73	22.8	0	1	248	0.00	30.096 
09:25	30.4	30.4	30.4	72	22.5	0	0	---	0.00	30.096 
09:30	30.6	30.6	30.6	73	23.0	0	1	248	0.00	30.101 
09:35	30.6	30.6	30.6	72	22.7	0	1	248	0.00	30.101 
09:40	30.7	30.7	30.7	72	22.8	0	1	248	0.00	30.101 
09:45	30.9	30.9	30.9	72	23.0	0	0	---	0.00	30.078 
09:50	31.0	31.0	31.0	72	23.1	0	1	248	0.00	30.078 
09:55	31.2	31.2	31.2	72	23.2	0	0	---	0.00	30.078 
10:00	31.2	31.2	31.2	71	22.9	0	1	248	0.00	30.072 
10:05	31.3	31.3	31.3	70	22.7	0	1	248	0.00	30.072 
10:10	31.3	31.3	31.3	70	22.7	0	1	248	0.00	30.072 
10:15	31.3	31.3	31.3	70	22.7	0	0	---	0.00	30.090 
10:20	31.5	31.5	31.5	70	22.9	0	2	248	0.00	30.090 
10:25	31.5	31.5	31.5	70	22.9	0	1	248	0.00	30.090 
10:30	31.6	31.6	31.6	70	23.0	0	1	248	0.00	30.106 
10:35	31.8	31.8	31.8	70	23.2	0	2	248	0.00	30.106 
10:40	32.1	32.1	32.1	70	23.4	0	3	248	0.00	30.106 
10:45	32.4	32.4	32.4	69	23.4	0	2	248	0.00	30.097 
10:50	32.5	32.5	32.5	69	23.5	0	3	248	0.00	30.097 
10:55	32.7	32.7	32.7	70	24.0	0	2	270	0.00	30.097 
11:00	32.8	32.8	32.8	69	23.8	0	1	270	0.00	30.090 
11:05	32.8	32.8	32.8	69	23.8	0	2	270	0.00	30.090 
11:10	32.8	32.8	32.8	69	23.8	0	1	270	0.00	30.090 
11:15	32.7	32.7	32.7	68	23.3	0	1	270	0.00	30.081 
11:20	32.5	32.5	32.5	68	23.1	0	1	270	0.00	30.081 
11:25	32.5	32.5	32.5	69	23.5	0	1	270	0.00	30.081 
11:30	32.5	32.5	32.5	69	23.5	0	1	270	0.00	30.070 
11:35	32.8	32.8	32.8	69	23.8	0	2	270	0.00	30.070 
11:40	33.2	33.2	33.2	69	24.2	0	2	270	0.00	30.070 
11:45	33.5	33.5	33.5	68	24.1	0	2	270	0.00	30.056 
11:50	33.7	33.7	33.7	67	23.9	2	5	90	0.00	30.056 
11:55	33.8	33.8	33.8	67	24.0	1	5	112	0.00	30.056 
12:00	34.0	34.0	34.0	67	24.2	0	3	112	0.00	30.050 
12:05	34.1	34.1	34.1	66	23.9	0	2	112	0.00	30.050 
12:10	34.1	34.1	34.1	67	24.3	0	2	112	0.00	30.050 
12:15	34.1	34.1	34.1	67	24.3	0	3	112	0.00	30.058 
12:20	34.3	34.3	34.3	67	24.5	0	1	112	0.00	30.058 
12:25	34.3	34.3	34.3	65	23.8	0	3	112	0.00	30.058 
12:30	34.1	34.1	34.1	66	23.9	0	2	225	0.00	30.054 
12:35	34.0	34.0	34.0	66	23.9	0	2	225	0.00	30.054 
12:40	33.8	33.8	33.8	66	23.7	0	2	225	0.00	30.054 
12:45	34.1	34.1	34.1	66	23.9	0	2	225	0.00	30.040 
12:50	34.3	34.3	34.3	67	24.5	0	2	225	0.00	30.040 
12:55	34.3	34.3	34.3	66	24.1	0	1	225	0.00	30.040 
13:00	34.4	34.4	34.4	65	23.9	0	1	225	0.00	30.040 
13:05	34.4	34.4	34.4	66	24.2	0	1	225	0.00	30.040 
13:10	34.6	34.6	34.6	66	24.4	0	1	225	0.00	30.040 
13:15	34.7	34.7	34.7	65	24.2	0	2	225	0.00	30.010 
13:20	34.7	34.7	34.7	65	24.2	0	2	225	0.00	30.010 
13:25	35.0	35.0	35.0	65	24.4	0	1	225	0.00	30.010 
13:30	35.3	35.3	35.3	65	24.7	0	2	225	0.00	30.007 
13:35	35.9	35.9	35.9	65	25.3	0	1	225	0.00	30.007 
13:40	36.3	36.3	36.3	64	25.3	0	1	225	0.00	30.007 
13:45	36.5	36.5	36.5	63	25.1	0	1	225	0.00	29.993 
13:50	36.3	36.3	36.3	62	24.5	0	1	225	0.00	29.993 
13:55	36.0	36.0	36.0	62	24.3	0	3	225	0.00	29.993 
14:00	35.9	35.9	35.9	62	24.2	0	2	225	0.00	29.997 
14:05	35.8	35.8	35.8	63	24.5	0	2	225	0.00	29.997 
14:10	35.8	35.8	35.8	63	24.5	0	3	225	0.00	29.997 
14:15	35.9	35.9	35.9	63	24.5	0	1	225	0.00	29.991 
14:20	36.2	36.2	36.2	64	25.2	1	2	225	0.00	29.991 
14:25	36.2	36.2	36.2	63	24.8	0	1	225	0.00	29.991 
14:30	36.0	36.0	36.0	63	24.6	0	1	225	0.00	29.986 
14:35	36.0	36.0	36.0	63	24.6	0	2	225	0.00	29.986 
14:40	35.9	35.9	35.9	63	24.5	0	3	225	0.00	29.986 
14:45	35.8	35.8	35.8	63	24.5	0	1	225	0.00	29.989 
14:50	35.6	35.6	35.6	65	25.0	0	1	225	0.00	29.989 
14:55	35.8	35.8	35.8	65	25.2	0	1	225	0.00	29.989 
15:00	35.8	35.8	35.8	64	24.8	0	1	225	0.00	29.982 
15:05	35.8	35.8	35.8	65	25.2	0	1	225	0.00	29.982 
15:10	35.9	35.9	35.9	65	25.3	0	1	225	0.00	29.982 
15:15	35.9	35.9	35.9	64	24.9	0	2	225	0.00	29.975 
15:20	35.8	35.8	35.8	64	24.8	0	1	225	0.00	29.975 
15:25	35.8	35.8	35.8	65	25.2	0	1	225	0.00	29.975 
15:30	35.9	35.9	35.9	65	25.3	0	1	225	0.00	29.963 
15:35	35.9	35.9	35.9	65	25.3	0	1	225	0.00	29.963 
15:40	35.9	35.9	35.9	65	25.3	0	1	225	0.00	29.963 
15:45	35.9	35.9	35.9	65	25.3	0	1	225	0.00	29.968 
15:50	35.9	35.9	35.9	66	25.7	0	1	225	0.00	29.968 
15:55	35.9	35.9	35.9	66	25.7	1	3	225	0.00	29.968 
16:00	35.8	35.8	35.8	66	25.6	0	2	225	0.00	29.974 
16:05	35.8	35.8	35.8	67	25.9	0	2	225	0.00	29.974 
16:10	35.9	35.9	35.9	67	26.0	0	1	225	0.00	29.974 
16:15	35.8	35.8	35.8	67	25.9	0	2	225	0.00	29.972 
16:20	35.6	35.6	35.6	67	25.7	0	2	225	0.00	29.972 
16:25	35.5	35.5	35.5	67	25.6	0	2	225	0.00	29.972 
16:30	35.3	35.3	35.3	67	25.5	0	1	225	0.00	29.969 
16:35	35.2	35.2	35.2	68	25.7	0	1	225	0.00	29.969 
16:40	35.0	35.0	35.0	68	25.5	1	3	225	0.00	29.969 
16:45	34.9	34.9	34.9	68	25.4	0	1	225	0.00	29.969 
16:50	34.7	34.7	34.7	69	25.6	0	2	225	0.00	29.969 
16:55	34.7	34.7	34.7	69	25.6	0	1	225	0.00	29.969 
17:00	34.6	34.6	34.6	69	25.5	0	2	225	0.00	29.969 
17:05	34.6	34.6	34.6	69	25.5	0	2	225	0.00	29.969 
17:10	34.6	34.6	34.6	69	25.5	0	1	225	0.00	29.969 
17:15	34.4	34.4	34.4	69	25.3	0	1	225	0.00	29.965 
17:20	34.4	34.4	34.4	69	25.3	0	0	---	0.00	29.965 
17:25	34.3	34.3	34.3	70	25.5	0	0	---	0.00	29.965 
17:30	34.3	34.3	34.3	70	25.5	0	0	---	0.00	29.964 
17:35	34.3	34.3	34.3	71	25.9	0	0	---	0.00	29.964 
17:40	34.1	34.1	34.1	71	25.7	0	0	---	0.00	29.964 
17:45	34.1	34.1	34.1	71	25.7	0	1	225	0.00	29.969 
17:50	34.1	34.1	34.1	71	25.7	0	1	225	0.00	29.969 
17:55	34.1	34.1	34.1	71	25.7	0	1	225	0.00	29.969 
18:00	34.1	34.1	34.1	71	25.7	0	1	225	0.00	29.961 
18:05	34.0	34.0	34.0	71	25.6	0	2	225	0.00	29.961 
18:10	34.0	34.0	34.0	71	25.6	0	2	225	0.00	29.961 
18:15	34.0	34.0	34.0	71	25.6	0	1	225	0.00	29.960 
18:20	33.8	33.8	33.8	72	25.7	0	1	225	0.00	29.960 
18:25	33.8	33.8	33.8	72	25.7	0	1	225	0.00	29.960 
18:30	33.7	33.7	33.7	72	25.7	0	2	225	0.00	29.963 
18:35	33.7	33.7	33.7	72	25.7	0	2	225	0.00	29.963 
18:40	33.7	33.7	33.7	72	25.7	0	1	225	0.00	29.963 
18:45	33.5	33.5	33.5	72	25.5	0	2	225	0.00	29.966 
18:50	33.5	33.5	33.5	72	25.5	0	3	225	0.00	29.966 
18:55	33.5	33.5	33.5	72	25.5	0	3	225	0.00	29.966 
19:00	33.4	33.4	33.4	72	25.4	0	2	248	0.00	29.972 
19:05	33.4	33.4	33.4	73	25.7	0	1	248	0.00	29.972 
19:10	33.4	33.4	33.4	73	25.7	0	1	248	0.00	29.972 
19:15	33.4	33.4	33.4	73	25.7	0	2	248	0.00	29.974 
19:20	33.2	33.2	33.2	73	25.5	0	2	248	0.00	29.974 
19:25	33.2	33.2	33.2	73	25.5	0	2	248	0.00	29.974 
19:30	33.2	33.2	33.2	73	25.5	1	3	248	0.00	29.971 
19:35	33.2	33.2	33.2	73	25.5	1	2	248	0.00	29.971 
19:40	33.2	33.2	33.2	74	25.8	0	3	248	0.00	29.971 
19:45	33.2	33.2	33.2	74	25.8	1	3	248	0.00	29.974 
19:50	33.2	33.2	33.2	74	25.8	1	5	315	0.00	29.974 
19:55	33.1	33.1	33.1	75	26.1	2	6	292	0.00	29.974 
20:00	33.1	33.1	33.1	75	26.1	2	5	315	0.00	29.970 
20:05	33.1	33.1	33.1	76	26.4	3	7	270	0.00	29.970 
20:10	32.9	32.9	32.9	77	26.5	3	7	315	0.00	29.970 
20:15	32.8	32.8	32.8	78	26.7	2	5	292	0.00	29.967 
20:20	32.7	32.7	32.7	79	26.9	2	6	292	0.00	29.967 
20:25	32.5	32.5	32.5	80	27.0	1	4	292	0.00	29.967 
20:30	32.1	28.2	32.1	81	26.9	4	7	292	0.00	29.980 
20:35	31.8	31.8	31.8	82	26.9	2	5	0	0.00	29.980 
20:40	31.3	31.3	31.3	82	26.5	2	7	338	0.00	29.980 
20:45	31.0	31.0	31.0	83	26.5	3	7	315	0.00	29.989 
20:50	30.9	30.9	30.9	84	26.6	2	6	338	0.00	29.989 
20:55	30.7	30.7	30.7	84	26.4	1	3	0	0.00	29.989 
21:00	30.6	30.6	30.6	84	26.4	1	5	338	0.00	29.987 
21:05	30.4	30.4	30.4	82	25.6	2	7	338	0.00	29.987 
21:10	30.1	30.1	30.1	79	24.4	2	6	338	0.00	29.987 
21:15	30.1	30.1	30.1	79	24.4	2	5	338	0.00	29.988 
21:20	30.1	30.1	30.1	78	24.1	1	4	338	0.00	29.988 
21:25	30.1	30.1	30.1	78	24.1	2	6	338	0.00	29.988 
21:30	30.0	30.0	30.0	77	23.7	1	4	315	0.00	29.992 
21:35	30.0	30.0	30.0	77	23.7	2	6	315	0.00	29.992 
21:40	30.0	30.0	30.0	77	23.7	1	5	338	0.00	29.992 
21:45	30.0	30.0	30.0	77	23.7	2	6	338	0.00	29.994 
21:50	30.0	30.0	30.0	77	23.7	1	6	338	0.00	29.994 
21:55	30.0	30.0	30.0	78	24.0	0	3	338	0.00	29.994 
22:00	30.0	30.0	30.0	78	24.0	1	4	338	0.00	29.995 
22:05	30.0	30.0	30.0	78	24.0	1	5	292	0.00	29.995 
22:10	29.8	29.8	29.8	78	23.8	1	4	338	0.00	29.995 
22:15	29.8	29.8	29.8	78	23.8	1	5	292	0.00	29.993 
22:20	29.7	29.7	29.7	77	23.4	2	7	338	0.00	29.993 
22:25	29.5	29.5	29.5	76	22.9	2	7	338	0.00	29.993 
22:30	29.4	29.4	29.4	76	22.8	1	5	338	0.00	29.992 
22:35	29.3	29.3	29.3	75	22.4	2	6	270	0.00	29.992 
22:40	29.3	29.3	29.3	74	22.1	1	3	270	0.00	29.992 
22:45	29.1	29.1	29.1	73	21.5	1	4	270	0.00	29.994 
22:50	29.1	29.1	29.1	73	21.5	1	6	0	0.00	29.994 
22:55	29.1	29.1	29.1	73	21.5	1	6	0	0.00	29.994 
23:00	29.0	29.0	29.0	73	21.4	2	5	315	0.00	29.995 
23:05	28.8	28.8	28.8	73	21.3	1	4	315	0.00	29.995 
23:10	28.8	28.8	28.8	73	21.3	2	7	315	0.00	29.995 
23:15	28.7	28.7	28.7	73	21.2	1	6	338	0.00	30.000 
23:20	28.7	28.7	28.7	74	21.5	1	5	338	0.00	30.000 
23:25	28.5	28.5	28.5	74	21.3	1	6	338	0.00	30.000 
23:30	28.5	28.5	28.5	74	21.3	1	4	338	0.00	29.998 
23:35	28.4	28.4	28.4	74	21.2	1	4	338	0.00	29.998 
23:40	28.2	28.2	28.2	74	21.0	1	6	315	0.00	29.998 
23:45	28.2	28.2	28.2	74	21.0	2	5	292	0.00	29.995 
23:50	28.1	28.1	28.1	74	20.9	1	4	0	0.00	29.995 
23:55	27.9	27.9	27.9	74	20.7	0	3	0	0.00	29.995 

CoCoRaHS
IN-AL-39
A2 Web Hosting
Creative Commons License
GoDaddy
search engine by freefind advanced

loaded 2018-11-13 21:24:21 • last modified 2010-11-18 10:43:29
Privacy PolicyDisclaimer
• wx.awcolley.com is powered by PmWiki v.2002016 •
• all content (unless otherwise noted) © 2018 A W Colley